createdAt,value
2022-11-24T00:01:07.600Z,2.60
2022-11-24T00:03:34.617Z,2.60
2022-11-24T00:06:10.997Z,2.88
2022-11-24T00:08:39.328Z,2.60
2022-11-24T00:11:11.734Z,2.72
2022-11-24T00:13:41.771Z,2.60
2022-11-24T00:16:10.412Z,2.50
2022-11-24T00:18:37.561Z,2.28
2022-11-24T00:21:04.539Z,2.20
2022-11-24T00:23:31.210Z,2.58
2022-11-24T00:26:14.948Z,2.17
2022-11-24T00:28:43.448Z,2.50
2022-11-24T00:31:22.237Z,2.13
2022-11-24T00:33:50.622Z,2.35
2022-11-24T00:36:18.662Z,1.90
2022-11-24T00:38:46.149Z,2.50
2022-11-24T00:41:13.216Z,2.55
2022-11-24T00:43:40.053Z,2.40
2022-11-24T00:46:06.732Z,2.70
2022-11-24T00:48:38.321Z,2.55
2022-11-24T00:51:10.776Z,2.30
2022-11-24T00:53:37.576Z,2.28
2022-11-24T00:56:04.825Z,2.20
2022-11-24T00:58:33.513Z,2.35
2022-11-24T01:01:13.731Z,2.80
2022-11-24T01:03:41.150Z,3.20
2022-11-24T01:06:11.003Z,2.42
2022-11-24T01:08:39.033Z,2.53
2022-11-24T01:11:18.768Z,2.50
2022-11-24T01:13:50.065Z,2.60
2022-11-24T01:16:29.593Z,2.47
2022-11-24T01:18:56.589Z,2.40
2022-11-24T01:21:23.591Z,2.40
2022-11-24T01:23:52.021Z,2.85
2022-11-24T01:26:21.180Z,2.45
2022-11-24T01:28:52.097Z,3.05
2022-11-24T01:31:22.936Z,2.45
2022-11-24T01:33:49.572Z,2.80
2022-11-24T01:36:16.274Z,2.90
2022-11-24T01:38:42.851Z,3.08
2022-11-24T01:41:18.703Z,2.80
2022-11-24T01:43:45.863Z,2.78
2022-11-24T01:46:22.807Z,2.92
2022-11-24T01:48:57.009Z,3.13
2022-11-24T01:51:26.738Z,3.13
2022-11-24T01:54:08.184Z,3.33
2022-11-24T01:56:37.736Z,3.30
2022-11-24T01:59:07.565Z,3.38
2022-11-24T02:01:34.690Z,3.40
2022-11-24T02:04:07.063Z,3.63
2022-11-24T02:06:38.531Z,4.40
2022-11-24T02:09:21.894Z,3.80
2022-11-24T02:11:48.467Z,3.75
2022-11-24T02:14:18.453Z,4.45
2022-11-24T02:16:49.995Z,3.80
2022-11-24T02:19:40.300Z,3.65
2022-11-24T02:22:16.535Z,3.80
2022-11-24T02:25:06.096Z,3.90
2022-11-24T02:27:32.834Z,4.03
2022-11-24T02:29:59.903Z,5.07
2022-11-24T02:32:28.050Z,4.38
2022-11-24T02:35:07.769Z,4.05
2022-11-24T02:37:40.175Z,4.90
2022-11-24T02:40:07.607Z,4.15
2022-11-24T02:42:50.160Z,4.90
2022-11-24T02:45:19.728Z,4.38
2022-11-24T02:47:46.420Z,5.03
2022-11-24T02:50:13.094Z,4.25
2022-11-24T02:52:39.697Z,4.90
2022-11-24T02:55:08.806Z,4.35
2022-11-24T02:57:35.383Z,4.88
2022-11-24T03:00:02.015Z,4.97
2022-11-24T03:02:28.646Z,5.30
2022-11-24T03:04:55.381Z,4.38
2022-11-24T03:07:25.047Z,4.95
2022-11-24T03:09:54.630Z,5.68
2022-11-24T03:12:21.226Z,4.90
2022-11-24T03:14:51.927Z,4.85
2022-11-24T03:17:18.530Z,4.53
2022-11-24T03:19:45.243Z,5.60
2022-11-24T03:22:22.798Z,4.35
2022-11-24T03:24:49.392Z,5.32
2022-11-24T03:27:16.005Z,4.70
2022-11-24T03:29:42.627Z,4.70
2022-11-24T03:32:09.188Z,4.78
2022-11-24T03:34:36.034Z,5.22
2022-11-24T03:37:02.869Z,4.95
2022-11-24T03:39:32.702Z,5.30
2022-11-24T03:41:59.322Z,4.43
2022-11-24T03:44:25.904Z,5.05
2022-11-24T03:46:52.630Z,5.55
2022-11-24T03:49:19.284Z,5.45
2022-11-24T03:51:46.612Z,4.85
2022-11-24T03:54:16.554Z,5.97
2022-11-24T03:56:43.195Z,5.20
2022-11-24T03:59:09.809Z,5.18
2022-11-24T04:01:36.498Z,5.55
2022-11-24T04:04:03.200Z,4.68
2022-11-24T04:06:29.799Z,4.40
2022-11-24T04:08:56.441Z,4.25
2022-11-24T04:11:41.658Z,4.90
2022-11-24T04:14:13.311Z,4.78
2022-11-24T04:19:06.669Z,4.65
2022-11-24T04:21:34.878Z,4.32
2022-11-24T04:24:01.550Z,4.55
2022-11-24T04:26:28.183Z,4.60
2022-11-24T04:28:54.768Z,4.50
2022-11-24T04:31:28.959Z,4.25
2022-11-24T04:33:55.613Z,4.13
2022-11-24T04:36:22.147Z,4.15
2022-11-24T04:39:19.855Z,4.28
2022-11-24T04:41:37.309Z,3.85
2022-11-24T04:44:05.827Z,4.60
2022-11-24T04:46:32.480Z,4.32
2022-11-24T04:48:59.052Z,4.20
2022-11-24T04:51:25.612Z,4.63
2022-11-24T04:53:52.230Z,4.20
2022-11-24T04:56:18.810Z,3.58
2022-11-24T04:58:48.505Z,4.20
2022-11-24T05:01:15.432Z,4.03
2022-11-24T05:03:41.950Z,4.25
2022-11-24T05:06:16.146Z,3.67
2022-11-24T05:08:42.601Z,3.97
2022-11-24T05:11:09.166Z,3.83
2022-11-24T05:13:35.649Z,4.93
2022-11-24T05:16:02.264Z,3.97
2022-11-24T05:18:28.927Z,4.65
2022-11-24T05:20:55.749Z,4.18
2022-11-24T05:23:22.239Z,4.47
2022-11-24T05:25:48.776Z,4.40
2022-11-24T05:28:15.620Z,4.15
2022-11-24T05:30:42.451Z,3.65
2022-11-24T05:33:22.971Z,4.60
2022-11-24T05:35:50.103Z,4.07
2022-11-24T05:38:18.069Z,4.60
2022-11-24T05:40:44.888Z,3.85
2022-11-24T05:43:16.505Z,4.63
2022-11-24T05:45:47.421Z,3.78
2022-11-24T05:48:15.486Z,4.13
2022-11-24T05:50:42.302Z,4.07
2022-11-24T05:53:11.840Z,4.20
2022-11-24T05:55:40.028Z,4.65
2022-11-24T05:58:08.528Z,4.03
2022-11-24T06:00:36.791Z,4.25
2022-11-24T06:03:03.999Z,4.30
2022-11-24T06:05:30.740Z,4.70
2022-11-24T06:07:59.434Z,4.25
2022-11-24T06:10:26.057Z,3.95
2022-11-24T06:12:52.721Z,3.80
2022-11-24T06:15:19.499Z,4.03
2022-11-24T06:17:54.636Z,5.25
2022-11-24T06:20:22.129Z,4.35
2022-11-24T06:22:48.655Z,4.45
2022-11-24T06:25:16.265Z,4.75
2022-11-24T06:27:43.512Z,4.18
2022-11-24T06:30:10.899Z,5.28
2022-11-24T06:32:37.474Z,4.82
2022-11-24T06:35:04.803Z,4.25
2022-11-24T06:37:31.467Z,5.22
2022-11-24T06:40:00.206Z,4.60
2022-11-24T06:42:26.689Z,4.88
2022-11-24T06:44:55.950Z,4.35
2022-11-24T06:47:22.456Z,4.70
2022-11-24T06:49:48.979Z,5.13
2022-11-24T06:52:15.466Z,4.80
2022-11-24T06:54:45.264Z,4.82
2022-11-24T06:57:14.753Z,4.30
2022-11-24T06:59:41.305Z,4.10
2022-11-24T07:02:13.094Z,4.75
2022-11-24T07:04:39.619Z,5.07
2022-11-24T07:07:06.081Z,4.45
2022-11-24T07:09:32.587Z,5.45
2022-11-24T07:11:59.047Z,6.00
2022-11-24T07:14:25.548Z,5.63
2022-11-24T07:16:52.546Z,4.38
2022-11-24T07:19:25.711Z,4.13
2022-11-24T07:21:54.858Z,4.72
2022-11-24T07:24:21.335Z,4.95
2022-11-24T07:26:47.827Z,4.90
2022-11-24T07:29:14.326Z,4.63
2022-11-24T07:31:40.913Z,4.20
2022-11-24T07:34:07.411Z,4.25
2022-11-24T07:36:34.084Z,4.45
2022-11-24T07:39:00.569Z,4.20
2022-11-24T07:41:27.055Z,3.90
2022-11-24T07:43:56.759Z,4.72
2022-11-24T07:46:23.416Z,4.75
2022-11-24T07:48:49.965Z,4.55
2022-11-24T07:51:16.519Z,4.63
2022-11-24T07:53:43.483Z,4.07
2022-11-24T07:56:10.612Z,4.30
2022-11-24T07:58:40.721Z,4.43
2022-11-24T08:01:16.032Z,4.35
2022-11-24T08:03:43.383Z,4.45
2022-11-24T08:06:31.773Z,4.45
2022-11-24T08:08:58.524Z,4.80
2022-11-24T08:11:25.286Z,4.55
2022-11-24T08:13:54.551Z,3.80
2022-11-24T08:16:21.247Z,3.97
2022-11-24T08:18:52.827Z,4.40
2022-11-24T08:21:20.377Z,4.03
2022-11-24T08:23:47.214Z,3.60
2022-11-24T08:26:17.749Z,3.97
2022-11-24T08:28:45.628Z,4.38
2022-11-24T08:31:15.163Z,3.88
2022-11-24T08:33:45.472Z,4.65
2022-11-24T08:36:14.818Z,5.05
2022-11-24T08:38:41.849Z,4.90
2022-11-24T08:41:15.273Z,3.83
2022-11-24T08:43:42.255Z,4.50
2022-11-24T08:46:11.058Z,4.25
2022-11-24T08:48:38.089Z,4.80
2022-11-24T08:51:15.706Z,3.97
2022-11-24T08:53:43.423Z,4.43
2022-11-24T08:56:11.288Z,4.53
2022-11-24T08:58:38.615Z,3.60
2022-11-24T09:01:14.486Z,4.25
2022-11-24T09:03:46.610Z,4.53
2022-11-24T09:06:15.582Z,3.97
2022-11-24T09:08:42.697Z,4.03
2022-11-24T09:11:12.355Z,4.80
2022-11-24T09:13:39.656Z,4.47
2022-11-24T09:16:15.470Z,4.13
2022-11-24T09:18:45.145Z,4.07
2022-11-24T09:21:14.758Z,3.45
2022-11-24T09:23:41.742Z,3.67
2022-11-24T09:26:23.405Z,3.45
2022-11-24T09:28:50.262Z,3.53
2022-11-24T09:31:21.127Z,3.22
2022-11-24T09:33:49.072Z,2.85
2022-11-24T09:36:15.709Z,3.05
2022-11-24T09:38:42.544Z,3.05
2022-11-24T09:41:14.979Z,2.65
2022-11-24T09:43:46.327Z,2.28
2022-11-24T09:46:43.672Z,2.42
2022-11-24T09:49:17.784Z,3.33
2022-11-24T09:51:51.393Z,3.17
2022-11-24T09:54:26.448Z,2.80
2022-11-24T09:56:53.038Z,2.83
2022-11-24T09:59:25.155Z,3.40
2022-11-24T10:01:52.428Z,2.90
2022-11-24T10:04:32.041Z,3.72
2022-11-24T10:07:22.993Z,3.63
2022-11-24T10:09:58.814Z,3.47
2022-11-24T10:12:28.120Z,3.13
2022-11-24T10:15:04.677Z,3.55
2022-11-24T10:17:56.099Z,2.92
2022-11-24T10:20:48.471Z,3.03
2022-11-24T10:23:41.857Z,2.95
2022-11-24T10:26:19.014Z,2.70
2022-11-24T10:28:53.335Z,3.28
2022-11-24T10:31:41.825Z,2.85
2022-11-24T10:34:16.811Z,4.00
2022-11-24T10:36:58.338Z,3.40
2022-11-24T10:40:26.979Z,3.22
2022-11-24T10:42:58.197Z,3.10
2022-11-24T10:45:27.435Z,3.22
2022-11-24T10:47:53.935Z,3.47
2022-11-24T10:50:27.175Z,3.88
2022-11-24T10:53:13.877Z,3.45
2022-11-24T10:55:58.266Z,4.00
2022-11-24T10:58:38.924Z,3.72
2022-11-24T11:01:32.014Z,3.80
2022-11-24T11:04:01.475Z,3.35
2022-11-24T11:06:30.221Z,3.80
2022-11-24T11:09:09.278Z,3.63
2022-11-24T11:11:39.189Z,3.53
2022-11-24T11:14:12.866Z,3.88
2022-11-24T11:16:42.164Z,3.90
2022-11-24T11:20:01.707Z,3.08
2022-11-24T11:22:37.408Z,3.75
2022-11-24T11:25:07.285Z,3.83
2022-11-24T11:27:36.951Z,3.30
2022-11-24T11:36:15.582Z,3.65
2022-11-24T11:38:43.577Z,3.80
2022-11-24T11:41:21.680Z,3.75
2022-11-24T11:43:56.252Z,3.72
2022-11-24T11:46:26.504Z,3.88
2022-11-24T11:48:53.119Z,3.63
2022-11-24T11:51:29.856Z,2.97
2022-11-24T11:54:26.941Z,3.40
2022-11-24T11:57:47.761Z,2.72
2022-11-24T12:00:21.913Z,3.10
2022-11-24T12:02:53.095Z,3.05
2022-11-24T12:05:38.946Z,3.35
2022-11-24T12:08:21.026Z,3.70
2022-11-24T12:10:48.012Z,3.55
2022-11-24T12:13:41.976Z,3.75
2022-11-24T12:16:34.464Z,4.00
2022-11-24T12:19:13.039Z,3.83
2022-11-24T12:22:05.667Z,3.72
2022-11-24T12:24:45.113Z,3.40
2022-11-24T12:27:50.155Z,3.88
2022-11-24T12:30:18.855Z,3.72
2022-11-24T12:33:05.507Z,3.83
2022-11-24T12:35:58.832Z,3.40
2022-11-24T12:38:43.728Z,3.47
2022-11-24T12:41:40.298Z,2.97
2022-11-24T12:44:27.620Z,3.50
2022-11-24T12:47:10.961Z,3.40
2022-11-24T12:50:14.759Z,3.28
2022-11-24T12:52:58.500Z,2.97
2022-11-24T12:55:27.584Z,2.95
2022-11-24T12:58:09.350Z,3.40
2022-11-24T13:01:17.048Z,3.22
2022-11-24T13:04:11.589Z,2.90
2022-11-24T13:06:51.531Z,2.97
2022-11-24T13:09:18.055Z,3.13
2022-11-24T13:11:47.039Z,3.30
2022-11-24T13:14:33.370Z,3.33
2022-11-24T13:17:31.045Z,4.00
2022-11-24T13:20:20.360Z,3.50
2022-11-24T13:23:20.455Z,3.50
2022-11-24T13:26:31.080Z,3.47
2022-11-24T13:29:13.472Z,5.00
2022-11-24T13:31:51.280Z,3.13
2022-11-24T13:34:44.931Z,3.13
2022-11-24T13:37:26.467Z,2.92
2022-11-24T13:40:01.165Z,3.20
2022-11-24T13:42:41.768Z,3.05
2022-11-24T13:45:40.502Z,2.90
2022-11-24T13:48:19.882Z,2.88
2022-11-24T13:50:58.486Z,3.63
2022-11-24T13:53:33.388Z,3.47
2022-11-24T13:56:03.370Z,3.15
2022-11-24T13:58:37.513Z,3.30
2022-11-24T14:01:11.430Z,3.03
2022-11-24T14:04:28.727Z,3.40
2022-11-24T14:07:07.009Z,4.20
2022-11-24T14:09:52.594Z,3.65
2022-11-24T14:12:27.870Z,3.17
2022-11-24T14:14:57.138Z,2.80
2022-11-24T14:17:27.583Z,3.20
2022-11-24T14:19:56.445Z,2.83
2022-11-24T14:22:39.335Z,2.90
2022-11-24T14:25:06.447Z,2.72
2022-11-24T14:27:37.434Z,2.55
2022-11-24T14:30:25.015Z,3.08
2022-11-24T14:33:01.856Z,2.80
2022-11-24T14:35:33.841Z,3.20
2022-11-24T14:40:54.376Z,3.03
2022-11-24T14:43:22.684Z,2.88
2022-11-24T14:45:57.251Z,2.80
2022-11-24T14:48:29.184Z,3.38
2022-11-24T14:53:32.379Z,2.90
2022-11-24T14:56:31.719Z,2.70
2022-11-24T14:58:59.179Z,3.42
2022-11-24T15:01:28.669Z,3.10
2022-11-24T15:04:39.011Z,6.40
2022-11-24T15:07:13.383Z,3.28
2022-11-24T15:09:48.973Z,2.97
2022-11-24T15:12:34.727Z,3.53
2022-11-24T15:15:06.379Z,4.30
2022-11-24T15:17:34.106Z,4.70
2022-11-24T15:20:03.435Z,4.80
2022-11-24T15:22:44.745Z,5.18
2022-11-24T15:25:32.459Z,4.40
2022-11-24T15:27:59.957Z,3.75
2022-11-24T15:30:27.161Z,3.78
2022-11-24T15:32:58.324Z,3.80
2022-11-24T15:35:29.928Z,3.83
2022-11-24T15:37:57.680Z,5.00
2022-11-24T15:40:24.806Z,4.90
2022-11-24T15:42:55.857Z,4.93
2022-11-24T15:45:25.034Z,6.93
2022-11-24T15:47:51.923Z,5.82
2022-11-24T15:50:19.441Z,6.82
2022-11-24T15:52:47.428Z,5.10
2022-11-24T15:55:22.015Z,5.65
2022-11-24T15:57:49.225Z,5.93
2022-11-24T16:00:24.815Z,6.80
2022-11-24T16:02:51.323Z,7.05
2022-11-24T16:05:18.024Z,7.93
2022-11-24T16:07:45.023Z,6.20
2022-11-24T16:10:31.265Z,5.55
2022-11-24T16:12:57.831Z,6.57
2022-11-24T16:15:24.692Z,6.80
2022-11-24T16:17:51.273Z,7.45
2022-11-24T16:20:17.875Z,6.25
2022-11-24T16:22:44.741Z,5.05
2022-11-24T16:25:14.521Z,5.28
2022-11-24T16:27:41.190Z,6.60
2022-11-24T16:30:10.905Z,6.82
2022-11-24T16:32:37.418Z,6.50
2022-11-24T16:35:04.507Z,5.30
2022-11-24T16:37:34.608Z,4.78
2022-11-24T16:40:02.494Z,4.97
2022-11-24T16:42:29.412Z,4.32
2022-11-24T16:44:55.946Z,5.63
2022-11-24T16:47:25.702Z,6.85
2022-11-24T16:49:52.247Z,7.25
2022-11-24T16:52:18.994Z,7.03
2022-11-24T16:54:47.382Z,6.53
2022-11-24T16:57:15.313Z,8.88
2022-11-24T16:59:51.701Z,8.40
2022-11-24T17:02:18.928Z,6.88
2022-11-24T17:04:45.584Z,7.97
2022-11-24T17:07:13.817Z,7.95
2022-11-24T17:09:40.933Z,7.38
2022-11-24T17:12:07.717Z,7.13
2022-11-24T17:14:34.496Z,7.22
2022-11-24T17:17:01.311Z,6.13
2022-11-24T17:19:28.522Z,5.63
2022-11-24T17:21:55.032Z,6.28
2022-11-24T17:24:21.586Z,5.97
2022-11-24T17:26:50.897Z,5.82
2022-11-24T17:29:19.813Z,8.85
2022-11-24T17:31:46.406Z,8.13
2022-11-24T17:34:13.009Z,7.93
2022-11-24T17:36:45.933Z,10.65
2022-11-24T17:39:12.450Z,10.32
2022-11-24T17:41:39.025Z,8.55
2022-11-24T17:44:10.637Z,9.02
2022-11-24T17:46:37.604Z,9.82
2022-11-24T17:49:04.154Z,9.65
2022-11-24T17:51:30.754Z,8.77
2022-11-24T17:54:05.971Z,9.13
2022-11-24T17:56:47.055Z,9.45
2022-11-24T17:59:13.897Z,9.43
2022-11-24T18:01:40.502Z,10.95
2022-11-24T18:04:07.011Z,13.38
2022-11-24T18:06:34.180Z,13.68
2022-11-24T18:09:00.709Z,11.77
2022-11-24T18:11:31.702Z,9.27
2022-11-24T18:14:02.269Z,9.93
2022-11-24T18:16:34.166Z,12.90
2022-11-24T18:19:09.405Z,11.05
2022-11-24T18:21:41.283Z,9.80
2022-11-24T18:24:09.762Z,9.18
2022-11-24T18:26:37.639Z,12.38
2022-11-24T18:29:04.542Z,9.50
2022-11-24T18:31:32.243Z,8.43
2022-11-24T18:33:59.325Z,7.80
2022-11-24T18:36:29.905Z,8.25
2022-11-24T18:39:00.395Z,8.38
2022-11-24T18:41:27.135Z,8.40
2022-11-24T18:43:53.942Z,8.68
2022-11-24T18:46:20.506Z,9.18
2022-11-24T18:48:47.260Z,8.93
2022-11-24T18:51:17.658Z,7.88
2022-11-24T18:53:46.065Z,7.78
2022-11-24T18:56:15.664Z,8.93
2022-11-24T18:58:43.018Z,7.88
2022-11-24T19:01:15.634Z,7.53
2022-11-24T19:03:51.473Z,6.18
2022-11-24T19:06:28.666Z,7.00
2022-11-24T19:08:55.957Z,6.45
2022-11-24T19:11:33.862Z,6.78
2022-11-24T19:14:01.724Z,6.22
2022-11-24T19:16:28.258Z,6.75
2022-11-24T19:19:02.486Z,6.20
2022-11-24T19:21:31.603Z,6.70
2022-11-24T19:24:04.163Z,6.93
2022-11-24T19:26:31.824Z,6.32
2022-11-24T19:29:03.856Z,6.38
2022-11-24T19:33:58.645Z,6.63
2022-11-24T19:36:26.272Z,6.57
2022-11-24T19:38:57.255Z,6.47
2022-11-24T19:41:27.100Z,6.40
2022-11-24T19:43:54.566Z,6.75
2022-11-24T19:46:26.197Z,6.68
2022-11-24T19:48:59.617Z,7.90
2022-11-24T19:51:30.841Z,9.27
2022-11-24T19:53:57.593Z,7.07
2022-11-24T19:56:27.047Z,8.25
2022-11-24T19:58:54.543Z,7.25
2022-11-24T20:01:24.768Z,7.20
2022-11-24T20:04:03.692Z,6.88
2022-11-24T20:06:36.808Z,6.85
2022-11-24T20:09:06.181Z,8.05
2022-11-24T20:11:32.747Z,6.47
2022-11-24T20:14:03.102Z,7.63
2022-11-24T20:16:31.638Z,7.45
2022-11-24T20:19:05.771Z,6.35
2022-11-24T20:21:33.146Z,6.32
2022-11-24T20:24:03.804Z,6.22
2022-11-24T20:26:40.108Z,6.22
2022-11-24T20:29:09.824Z,6.63
2022-11-24T20:31:38.398Z,6.63
2022-11-24T20:34:07.244Z,5.60
2022-11-24T20:36:35.415Z,5.35
2022-11-24T20:39:05.597Z,5.47
2022-11-24T20:41:34.750Z,5.28
2022-11-24T20:44:08.133Z,6.20
2022-11-24T20:46:40.345Z,5.70
2022-11-24T20:49:08.749Z,6.35
2022-11-24T20:51:39.023Z,6.22
2022-11-24T20:54:10.939Z,6.50
2022-11-24T20:56:40.890Z,5.55
2022-11-24T20:59:09.094Z,6.30
2022-11-24T21:01:38.657Z,5.40
2022-11-24T21:04:07.953Z,6.80
2022-11-24T21:06:35.733Z,5.22
2022-11-24T21:09:04.183Z,5.70
2022-11-24T21:11:31.674Z,5.68
2022-11-24T21:13:58.644Z,6.20
2022-11-24T21:16:30.140Z,5.20
2022-11-24T21:19:12.579Z,5.70
2022-11-24T21:21:40.115Z,5.45
2022-11-24T21:24:12.547Z,4.65
2022-11-24T21:26:40.276Z,4.72
2022-11-24T21:29:07.420Z,5.10
2022-11-24T21:31:38.299Z,5.25
2022-11-24T21:34:06.146Z,3.88
2022-11-24T21:36:34.908Z,4.18
2022-11-24T21:39:02.683Z,4.43
2022-11-24T21:41:32.137Z,4.35
2022-11-24T21:43:59.158Z,4.53
2022-11-24T21:46:28.181Z,3.88
2022-11-24T21:48:54.717Z,3.78
2022-11-24T21:51:21.269Z,4.07
2022-11-24T21:53:48.075Z,5.15
2022-11-24T21:56:17.590Z,4.10
2022-11-24T21:58:48.108Z,3.72
2022-11-24T22:01:17.663Z,3.88
2022-11-24T22:03:45.716Z,3.78
2022-11-24T22:06:12.959Z,3.95
2022-11-24T22:08:39.512Z,3.55
2022-11-24T22:11:11.321Z,4.07
2022-11-24T22:13:37.829Z,3.30
2022-11-24T22:16:10.069Z,3.50
2022-11-24T22:18:38.847Z,3.67
2022-11-24T22:21:07.396Z,3.72
2022-11-24T22:23:35.924Z,3.55
2022-11-24T22:26:07.536Z,4.10
2022-11-24T22:28:37.332Z,3.67
2022-11-24T22:31:18.201Z,4.13
2022-11-24T22:33:45.331Z,3.45
2022-11-24T22:36:13.891Z,4.18
2022-11-24T22:38:41.112Z,3.63
2022-11-24T22:41:16.420Z,3.38
2022-11-24T22:43:44.490Z,3.70
2022-11-24T22:46:25.360Z,3.60
2022-11-24T22:48:53.264Z,3.60
2022-11-24T22:51:22.343Z,3.90
2022-11-24T22:53:58.292Z,3.83
2022-11-24T22:56:28.195Z,3.50
2022-11-24T22:59:02.005Z,3.53
2022-11-24T23:01:29.845Z,3.50
2022-11-24T23:03:56.994Z,3.63
2022-11-24T23:06:26.189Z,3.55
2022-11-24T23:08:52.968Z,3.72
2022-11-24T23:11:27.335Z,3.72
2022-11-24T23:14:00.470Z,4.20
2022-11-24T23:16:34.279Z,3.53
2022-11-24T23:19:03.880Z,3.95
2022-11-24T23:21:32.409Z,4.55
2022-11-24T23:24:00.994Z,4.00
2022-11-24T23:26:39.106Z,3.53
2022-11-24T23:29:07.185Z,3.92
2022-11-24T23:31:33.746Z,4.53
2022-11-24T23:34:02.927Z,3.70
2022-11-24T23:36:30.227Z,3.72
2022-11-24T23:39:00.832Z,4.00
2022-11-24T23:41:30.069Z,3.72
2022-11-24T23:43:56.558Z,4.05
2022-11-24T23:46:24.923Z,4.30
2022-11-24T23:48:53.330Z,4.00
2022-11-24T23:51:25.135Z,3.88
2022-11-24T23:53:52.289Z,3.60
2022-11-24T23:56:39.174Z,3.63
2022-11-24T23:59:05.671Z,3.75
